sensor_id;sensor_type;location;lat;lon;timestamp;P1;durP1;ratioP1;P2;durP2;ratioP2
53674;SDS011;39574;50.534;8.500;2023-05-07T15:33:00;3.3;;;0.7;;
53674;SDS011;39574;50.534;8.500;2023-05-07T15:37:59;2.7;;;0.8;;
53674;SDS011;39574;50.534;8.500;2023-05-07T15:42:59;2.8;;;1.0;;
53674;SDS011;39574;50.534;8.500;2023-05-07T15:47:58;2.6;;;0.8;;
53674;SDS011;39574;50.534;8.500;2023-05-07T15:52:58;2.8;;;0.8;;
53674;SDS011;39574;50.534;8.500;2023-05-07T15:57:57;3.2;;;0.8;;
53674;SDS011;39574;50.534;8.500;2023-05-07T16:02:57;3.3;;;0.8;;
53674;SDS011;39574;50.534;8.500;2023-05-07T16:07:56;3.3;;;0.9;;
53674;SDS011;39574;50.534;8.500;2023-05-07T16:12:56;3.1;;;1.0;;
53674;SDS011;39574;50.534;8.500;2023-05-07T16:17:56;2.9;;;1.0;;
53674;SDS011;39574;50.534;8.500;2023-05-07T16:22:55;2.9;;;1.0;;
53674;SDS011;39574;50.534;8.500;2023-05-07T16:27:55;3.0;;;1.0;;
53674;SDS011;39574;50.534;8.500;2023-05-07T16:32:54;2.9;;;0.9;;
53674;SDS011;39574;50.534;8.500;2023-05-07T16:37:54;2.8;;;0.9;;
53674;SDS011;39574;50.534;8.500;2023-05-07T16:42:54;2.8;;;0.8;;
53674;SDS011;39574;50.534;8.500;2023-05-07T16:47:53;2.5;;;0.7;;
53674;SDS011;39574;50.534;8.500;2023-05-07T16:52:52;3.3;;;0.7;;
53674;SDS011;39574;50.534;8.500;2023-05-07T16:57:52;3.1;;;0.7;;
53674;SDS011;39574;50.534;8.500;2023-05-07T17:02:52;2.8;;;0.7;;
53674;SDS011;39574;50.534;8.500;2023-05-07T17:07:51;2.8;;;0.7;;
53674;SDS011;39574;50.534;8.500;2023-05-07T17:12:51;2.8;;;0.8;;
53674;SDS011;39574;50.534;8.500;2023-05-07T17:17:50;3.7;;;1.3;;
53674;SDS011;39574;50.534;8.500;2023-05-07T17:22:49;3.6;;;1.3;;
53674;SDS011;39574;50.534;8.500;2023-05-07T17:27:49;3.3;;;1.3;;
53674;SDS011;39574;50.534;8.500;2023-05-07T17:32:51;2.9;;;1.1;;
53674;SDS011;39574;50.534;8.500;2023-05-07T17:37:48;2.5;;;0.9;;
53674;SDS011;39574;50.534;8.500;2023-05-07T17:42:47;2.5;;;0.8;;
53674;SDS011;39574;50.534;8.500;2023-05-07T17:47:47;2.6;;;0.9;;
53674;SDS011;39574;50.534;8.500;2023-05-07T17:52:46;2.7;;;0.9;;
53674;SDS011;39574;50.534;8.500;2023-05-07T17:57:46;3.2;;;1.3;;
53674;SDS011;39574;50.534;8.500;2023-05-07T18:07:44;3.1;;;1.1;;
53674;SDS011;39574;50.534;8.500;2023-05-07T18:12:44;3.0;;;1.1;;
53674;SDS011;39574;50.534;8.500;2023-05-07T18:17:43;2.9;;;1.1;;
53674;SDS011;39574;50.534;8.500;2023-05-07T18:22:43;2.8;;;1.0;;
53674;SDS011;39574;50.534;8.500;2023-05-07T18:27:42;2.6;;;1.0;;
53674;SDS011;39574;50.534;8.500;2023-05-07T18:32:42;2.9;;;1.2;;
53674;SDS011;39574;50.534;8.500;2023-05-07T18:37:41;3.2;;;1.1;;
53674;SDS011;39574;50.534;8.500;2023-05-07T18:42:40;3.5;;;1.2;;
53674;SDS011;39574;50.534;8.500;2023-05-07T18:47:40;3.3;;;1.2;;
53674;SDS011;39574;50.534;8.500;2023-05-07T18:52:39;3.0;;;1.0;;
53674;SDS011;39574;50.534;8.500;2023-05-07T18:57:38;3.3;;;1.2;;
53674;SDS011;39574;50.534;8.500;2023-05-07T19:02:38;3.2;;;1.1;;
53674;SDS011;39574;50.534;8.500;2023-05-07T19:07:37;3.3;;;1.0;;
53674;SDS011;39574;50.534;8.500;2023-05-07T19:12:36;2.9;;;0.9;;
53674;SDS011;39574;50.534;8.500;2023-05-07T19:17:36;2.6;;;0.8;;
53674;SDS011;39574;50.534;8.500;2023-05-07T19:22:35;2.6;;;0.8;;
53674;SDS011;39574;50.534;8.500;2023-05-07T19:27:35;2.8;;;1.1;;
53674;SDS011;39574;50.534;8.500;2023-05-07T19:32:34;3.6;;;1.4;;
53674;SDS011;39574;50.534;8.500;2023-05-07T19:37:33;3.5;;;1.6;;
53674;SDS011;39574;50.534;8.500;2023-05-07T19:42:33;3.3;;;1.4;;
53674;SDS011;39574;50.534;8.500;2023-05-07T19:47:32;3.1;;;1.2;;
53674;SDS011;39574;50.534;8.500;2023-05-07T19:52:31;4.0;;;1.4;;
53674;SDS011;39574;50.534;8.500;2023-05-07T19:57:31;3.7;;;1.4;;
53674;SDS011;39574;50.534;8.500;2023-05-07T20:02:30;3.7;;;1.5;;
53674;SDS011;39574;50.534;8.500;2023-05-07T20:07:29;3.5;;;1.7;;
53674;SDS011;39574;50.534;8.500;2023-05-07T20:12:28;3.4;;;1.7;;
53674;SDS011;39574;50.534;8.500;2023-05-07T20:17:28;3.3;;;1.6;;
53674;SDS011;39574;50.534;8.500;2023-05-07T20:22:28;3.3;;;1.5;;
53674;SDS011;39574;50.534;8.500;2023-05-07T20:27:26;4.7;;;1.4;;
53674;SDS011;39574;50.534;8.500;2023-05-07T20:32:25;4.4;;;1.4;;
53674;SDS011;39574;50.534;8.500;2023-05-07T20:37:25;3.7;;;1.2;;
53674;SDS011;39574;50.534;8.500;2023-05-07T20:42:24;3.3;;;1.3;;
53674;SDS011;39574;50.534;8.500;2023-05-07T20:47:23;2.9;;;1.4;;
53674;SDS011;39574;50.534;8.500;2023-05-07T20:52:23;3.0;;;1.2;;
53674;SDS011;39574;50.534;8.500;2023-05-07T20:57:22;2.8;;;0.9;;
53674;SDS011;39574;50.534;8.500;2023-05-07T21:02:21;2.8;;;0.9;;
53674;SDS011;39574;50.534;8.500;2023-05-07T21:07:20;2.7;;;0.9;;
53674;SDS011;39574;50.534;8.500;2023-05-07T21:12:20;3.0;;;1.2;;
53674;SDS011;39574;50.534;8.500;2023-05-07T21:17:19;3.0;;;1.3;;
53674;SDS011;39574;50.534;8.500;2023-05-07T21:22:18;3.1;;;1.4;;
53674;SDS011;39574;50.534;8.500;2023-05-07T21:27:17;3.1;;;1.4;;
53674;SDS011;39574;50.534;8.500;2023-05-07T21:32:17;4.3;;;1.5;;
53674;SDS011;39574;50.534;8.500;2023-05-07T21:37:16;4.1;;;1.5;;
53674;SDS011;39574;50.534;8.500;2023-05-07T21:42:15;4.1;;;1.3;;
53674;SDS011;39574;50.534;8.500;2023-05-07T21:47:14;3.5;;;1.1;;
53674;SDS011;39574;50.534;8.500;2023-05-07T21:52:14;3.7;;;1.0;;
53674;SDS011;39574;50.534;8.500;2023-05-07T21:57:13;3.2;;;0.9;;
53674;SDS011;39574;50.534;8.500;2023-05-07T22:02:12;2.9;;;0.8;;
53674;SDS011;39574;50.534;8.500;2023-05-07T22:07:11;2.8;;;0.9;;
53674;SDS011;39574;50.534;8.500;2023-05-07T22:12:11;3.0;;;1.1;;
53674;SDS011;39574;50.534;8.500;2023-05-07T22:17:10;3.0;;;1.1;;
53674;SDS011;39574;50.534;8.500;2023-05-07T22:22:09;3.5;;;1.0;;
53674;SDS011;39574;50.534;8.500;2023-05-07T22:27:08;3.9;;;1.1;;
53674;SDS011;39574;50.534;8.500;2023-05-07T22:32:08;3.5;;;1.0;;
53674;SDS011;39574;50.534;8.500;2023-05-07T22:37:07;3.3;;;1.1;;
53674;SDS011;39574;50.534;8.500;2023-05-07T22:42:06;3.2;;;1.2;;
53674;SDS011;39574;50.534;8.500;2023-05-07T22:47:05;3.0;;;1.1;;
53674;SDS011;39574;50.534;8.500;2023-05-07T22:52:05;3.7;;;1.4;;
53674;SDS011;39574;50.534;8.500;2023-05-07T22:57:04;3.5;;;1.3;;
53674;SDS011;39574;50.534;8.500;2023-05-07T23:02:03;3.3;;;1.4;;
53674;SDS011;39574;50.534;8.500;2023-05-07T23:07:02;2.9;;;1.2;;
53674;SDS011;39574;50.534;8.500;2023-05-07T23:12:02;2.8;;;1.1;;
53674;SDS011;39574;50.534;8.500;2023-05-07T23:17:00;2.7;;;1.1;;
53674;SDS011;39574;50.534;8.500;2023-05-07T23:22:00;3.4;;;1.3;;
53674;SDS011;39574;50.534;8.500;2023-05-07T23:27:00;3.4;;;1.2;;
53674;SDS011;39574;50.534;8.500;2023-05-07T23:31:58;3.2;;;1.2;;
53674;SDS011;39574;50.534;8.500;2023-05-07T23:36:57;3.1;;;1.2;;
53674;SDS011;39574;50.534;8.500;2023-05-07T23:41:56;4.0;;;1.4;;
53674;SDS011;39574;50.534;8.500;2023-05-07T23:46:55;3.8;;;1.3;;
53674;SDS011;39574;50.534;8.500;2023-05-07T23:51:55;3.4;;;1.3;;
53674;SDS011;39574;50.534;8.500;2023-05-07T23:56:54;4.1;;;1.1;;
